sensor_id;sensor_type;location;lat;lon;timestamp;P1;durP1;ratioP1;P2;durP2;ratioP2
22614;SDS011;11474;50.790;0.298;2022-08-19T00:00:37;19.52;;;5.00;;
22614;SDS011;11474;50.790;0.298;2022-08-19T00:03:04;19.05;;;5.15;;
22614;SDS011;11474;50.790;0.298;2022-08-19T00:05:30;16.50;;;4.95;;
22614;SDS011;11474;50.790;0.298;2022-08-19T00:07:57;14.82;;;4.38;;
22614;SDS011;11474;50.790;0.298;2022-08-19T00:10:23;15.52;;;4.45;;
22614;SDS011;11474;50.790;0.298;2022-08-19T00:12:49;17.40;;;4.78;;
22614;SDS011;11474;50.790;0.298;2022-08-19T00:15:16;14.75;;;4.40;;
22614;SDS011;11474;50.790;0.298;2022-08-19T00:17:43;17.33;;;4.53;;
22614;SDS011;11474;50.790;0.298;2022-08-19T00:20:10;13.63;;;4.18;;
22614;SDS011;11474;50.790;0.298;2022-08-19T00:22:37;14.37;;;4.30;;
22614;SDS011;11474;50.790;0.298;2022-08-19T00:25:04;10.48;;;3.70;;
22614;SDS011;11474;50.790;0.298;2022-08-19T00:27:30;10.00;;;3.55;;
22614;SDS011;11474;50.790;0.298;2022-08-19T00:29:56;10.30;;;3.83;;
22614;SDS011;11474;50.790;0.298;2022-08-19T00:32:24;9.93;;;3.67;;
22614;SDS011;11474;50.790;0.298;2022-08-19T00:34:51;10.00;;;4.03;;
22614;SDS011;11474;50.790;0.298;2022-08-19T00:37:18;9.85;;;3.70;;
22614;SDS011;11474;50.790;0.298;2022-08-19T00:39:44;12.00;;;3.95;;
22614;SDS011;11474;50.790;0.298;2022-08-19T00:42:10;7.75;;;3.35;;
22614;SDS011;11474;50.790;0.298;2022-08-19T00:44:37;7.60;;;3.28;;
22614;SDS011;11474;50.790;0.298;2022-08-19T00:47:04;7.68;;;2.95;;
22614;SDS011;11474;50.790;0.298;2022-08-19T00:52:00;11.07;;;3.42;;
22614;SDS011;11474;50.790;0.298;2022-08-19T00:54:27;9.25;;;3.28;;
22614;SDS011;11474;50.790;0.298;2022-08-19T00:56:56;10.85;;;3.28;;
22614;SDS011;11474;50.790;0.298;2022-08-19T00:59:22;10.32;;;3.20;;
22614;SDS011;11474;50.790;0.298;2022-08-19T01:01:49;7.57;;;3.10;;
22614;SDS011;11474;50.790;0.298;2022-08-19T01:04:15;7.30;;;2.83;;
22614;SDS011;11474;50.790;0.298;2022-08-19T01:06:41;8.90;;;3.15;;
22614;SDS011;11474;50.790;0.298;2022-08-19T01:09:08;9.40;;;3.00;;
22614;SDS011;11474;50.790;0.298;2022-08-19T01:11:35;8.88;;;2.97;;
22614;SDS011;11474;50.790;0.298;2022-08-19T01:14:02;8.93;;;2.72;;
22614;SDS011;11474;50.790;0.298;2022-08-19T01:16:28;7.18;;;2.88;;
22614;SDS011;11474;50.790;0.298;2022-08-19T01:18:55;8.20;;;2.90;;
22614;SDS011;11474;50.790;0.298;2022-08-19T01:21:24;5.85;;;2.42;;
22614;SDS011;11474;50.790;0.298;2022-08-19T01:23:51;5.35;;;2.30;;
22614;SDS011;11474;50.790;0.298;2022-08-19T01:26:19;8.02;;;2.65;;
22614;SDS011;11474;50.790;0.298;2022-08-19T01:28:47;7.25;;;2.88;;
22614;SDS011;11474;50.790;0.298;2022-08-19T01:31:16;8.38;;;2.80;;
22614;SDS011;11474;50.790;0.298;2022-08-19T01:33:43;9.15;;;3.15;;
22614;SDS011;11474;50.790;0.298;2022-08-19T01:36:11;9.55;;;3.70;;
22614;SDS011;11474;50.790;0.298;2022-08-19T01:38:39;9.55;;;2.70;;
22614;SDS011;11474;50.790;0.298;2022-08-19T01:41:06;8.40;;;2.90;;
22614;SDS011;11474;50.790;0.298;2022-08-19T01:43:32;8.02;;;2.30;;
22614;SDS011;11474;50.790;0.298;2022-08-19T01:45:59;4.38;;;2.30;;
22614;SDS011;11474;50.790;0.298;2022-08-19T01:48:25;8.27;;;2.80;;
22614;SDS011;11474;50.790;0.298;2022-08-19T01:50:54;7.63;;;3.05;;
22614;SDS011;11474;50.790;0.298;2022-08-19T01:53:20;11.33;;;3.43;;
22614;SDS011;11474;50.790;0.298;2022-08-19T01:55:46;7.55;;;2.83;;
22614;SDS011;11474;50.790;0.298;2022-08-19T01:58:18;6.95;;;2.70;;
22614;SDS011;11474;50.790;0.298;2022-08-19T02:00:46;11.18;;;3.20;;
22614;SDS011;11474;50.790;0.298;2022-08-19T02:03:13;7.13;;;3.22;;
22614;SDS011;11474;50.790;0.298;2022-08-19T02:05:39;8.68;;;3.00;;
22614;SDS011;11474;50.790;0.298;2022-08-19T02:08:05;10.07;;;3.70;;
22614;SDS011;11474;50.790;0.298;2022-08-19T02:10:32;12.30;;;3.40;;
22614;SDS011;11474;50.790;0.298;2022-08-19T02:12:58;10.50;;;3.88;;
22614;SDS011;11474;50.790;0.298;2022-08-19T02:15:24;10.60;;;3.13;;
22614;SDS011;11474;50.790;0.298;2022-08-19T02:17:50;12.90;;;3.67;;
22614;SDS011;11474;50.790;0.298;2022-08-19T02:20:16;10.23;;;4.07;;
22614;SDS011;11474;50.790;0.298;2022-08-19T02:22:43;12.17;;;3.97;;
22614;SDS011;11474;50.790;0.298;2022-08-19T02:25:13;10.73;;;4.00;;
22614;SDS011;11474;50.790;0.298;2022-08-19T02:27:39;11.77;;;3.90;;
22614;SDS011;11474;50.790;0.298;2022-08-19T02:30:07;12.60;;;4.55;;
22614;SDS011;11474;50.790;0.298;2022-08-19T02:32:33;13.98;;;4.43;;
22614;SDS011;11474;50.790;0.298;2022-08-19T02:35:00;16.40;;;4.80;;
22614;SDS011;11474;50.790;0.298;2022-08-19T02:37:26;18.87;;;5.10;;
22614;SDS011;11474;50.790;0.298;2022-08-19T02:40:11;16.88;;;5.72;;
22614;SDS011;11474;50.790;0.298;2022-08-19T02:42:37;16.50;;;5.30;;
22614;SDS011;11474;50.790;0.298;2022-08-19T02:45:03;17.30;;;5.28;;
22614;SDS011;11474;50.790;0.298;2022-08-19T02:47:30;16.57;;;5.27;;
22614;SDS011;11474;50.790;0.298;2022-08-19T02:49:56;17.20;;;5.82;;
22614;SDS011;11474;50.790;0.298;2022-08-19T02:52:22;17.38;;;6.38;;
22614;SDS011;11474;50.790;0.298;2022-08-19T02:54:50;23.05;;;6.88;;
22614;SDS011;11474;50.790;0.298;2022-08-19T02:57:16;22.00;;;6.65;;
22614;SDS011;11474;50.790;0.298;2022-08-19T02:59:42;26.23;;;6.85;;
22614;SDS011;11474;50.790;0.298;2022-08-19T03:02:08;22.48;;;6.35;;
22614;SDS011;11474;50.790;0.298;2022-08-19T03:04:34;24.30;;;7.07;;
22614;SDS011;11474;50.790;0.298;2022-08-19T03:07:00;22.27;;;6.10;;
22614;SDS011;11474;50.790;0.298;2022-08-19T03:09:26;18.77;;;6.20;;
22614;SDS011;11474;50.790;0.298;2022-08-19T03:11:52;13.93;;;4.97;;
22614;SDS011;11474;50.790;0.298;2022-08-19T03:14:18;20.88;;;6.00;;
22614;SDS011;11474;50.790;0.298;2022-08-19T03:16:46;22.93;;;5.80;;
22614;SDS011;11474;50.790;0.298;2022-08-19T03:19:13;20.70;;;5.80;;
22614;SDS011;11474;50.790;0.298;2022-08-19T03:21:39;16.48;;;5.05;;
22614;SDS011;11474;50.790;0.298;2022-08-19T03:24:07;17.48;;;4.88;;
22614;SDS011;11474;50.790;0.298;2022-08-19T03:26:33;14.23;;;4.30;;
22614;SDS011;11474;50.790;0.298;2022-08-19T03:29:03;16.15;;;4.80;;
22614;SDS011;11474;50.790;0.298;2022-08-19T03:31:29;18.52;;;4.95;;
22614;SDS011;11474;50.790;0.298;2022-08-19T03:33:56;17.50;;;4.70;;
22614;SDS011;11474;50.790;0.298;2022-08-19T03:36:23;20.73;;;5.15;;
22614;SDS011;11474;50.790;0.298;2022-08-19T03:38:50;19.85;;;5.38;;
22614;SDS011;11474;50.790;0.298;2022-08-19T03:41:24;21.33;;;5.47;;
22614;SDS011;11474;50.790;0.298;2022-08-19T03:43:50;22.75;;;5.53;;
22614;SDS011;11474;50.790;0.298;2022-08-19T03:46:18;20.38;;;5.80;;
22614;SDS011;11474;50.790;0.298;2022-08-19T03:48:48;17.95;;;5.68;;
22614;SDS011;11474;50.790;0.298;2022-08-19T03:51:40;20.77;;;5.53;;
22614;SDS011;11474;50.790;0.298;2022-08-19T03:54:06;23.15;;;6.05;;
22614;SDS011;11474;50.790;0.298;2022-08-19T03:56:34;23.17;;;5.80;;
22614;SDS011;11474;50.790;0.298;2022-08-19T03:59:00;20.90;;;5.60;;
22614;SDS011;11474;50.790;0.298;2022-08-19T04:01:27;24.33;;;6.30;;
22614;SDS011;11474;50.790;0.298;2022-08-19T04:03:53;21.65;;;5.97;;
22614;SDS011;11474;50.790;0.298;2022-08-19T04:06:25;19.17;;;5.85;;
22614;SDS011;11474;50.790;0.298;2022-08-19T04:08:52;17.25;;;6.03;;
22614;SDS011;11474;50.790;0.298;2022-08-19T04:11:23;21.30;;;6.03;;
22614;SDS011;11474;50.790;0.298;2022-08-19T04:13:50;16.80;;;4.97;;
22614;SDS011;11474;50.790;0.298;2022-08-19T04:16:17;18.40;;;5.25;;
22614;SDS011;11474;50.790;0.298;2022-08-19T04:18:43;22.08;;;5.60;;
22614;SDS011;11474;50.790;0.298;2022-08-19T04:21:14;22.52;;;6.53;;
22614;SDS011;11474;50.790;0.298;2022-08-19T04:23:40;23.50;;;6.78;;
22614;SDS011;11474;50.790;0.298;2022-08-19T04:26:07;24.15;;;7.05;;
22614;SDS011;11474;50.790;0.298;2022-08-19T04:28:33;24.08;;;7.03;;
22614;SDS011;11474;50.790;0.298;2022-08-19T04:31:00;27.17;;;6.35;;
22614;SDS011;11474;50.790;0.298;2022-08-19T04:33:27;23.40;;;6.03;;
22614;SDS011;11474;50.790;0.298;2022-08-19T04:35:53;25.00;;;6.07;;
22614;SDS011;11474;50.790;0.298;2022-08-19T04:38:20;23.38;;;5.93;;
22614;SDS011;11474;50.790;0.298;2022-08-19T04:40:48;20.20;;;5.82;;
22614;SDS011;11474;50.790;0.298;2022-08-19T04:43:34;20.33;;;5.57;;
22614;SDS011;11474;50.790;0.298;2022-08-19T04:46:05;20.98;;;5.50;;
22614;SDS011;11474;50.790;0.298;2022-08-19T04:48:31;23.02;;;5.88;;
22614;SDS011;11474;50.790;0.298;2022-08-19T04:50:57;20.35;;;5.57;;
22614;SDS011;11474;50.790;0.298;2022-08-19T04:53:24;20.25;;;5.40;;
22614;SDS011;11474;50.790;0.298;2022-08-19T04:55:51;18.25;;;5.07;;
22614;SDS011;11474;50.790;0.298;2022-08-19T04:58:18;19.27;;;5.10;;
22614;SDS011;11474;50.790;0.298;2022-08-19T05:00:44;19.20;;;5.22;;
22614;SDS011;11474;50.790;0.298;2022-08-19T05:03:10;19.67;;;6.23;;
22614;SDS011;11474;50.790;0.298;2022-08-19T05:05:40;24.52;;;6.95;;
22614;SDS011;11474;50.790;0.298;2022-08-19T05:08:06;28.80;;;8.38;;
22614;SDS011;11474;50.790;0.298;2022-08-19T05:10:36;33.97;;;9.10;;
22614;SDS011;11474;50.790;0.298;2022-08-19T05:13:02;33.75;;;9.05;;
22614;SDS011;11474;50.790;0.298;2022-08-19T05:15:29;35.77;;;9.43;;
22614;SDS011;11474;50.790;0.298;2022-08-19T05:17:55;31.67;;;8.95;;
22614;SDS011;11474;50.790;0.298;2022-08-19T05:20:39;35.80;;;8.93;;
22614;SDS011;11474;50.790;0.298;2022-08-19T05:23:24;36.08;;;9.15;;
22614;SDS011;11474;50.790;0.298;2022-08-19T05:25:51;36.75;;;8.27;;
22614;SDS011;11474;50.790;0.298;2022-08-19T05:28:18;33.42;;;8.10;;
22614;SDS011;11474;50.790;0.298;2022-08-19T05:30:44;28.40;;;8.23;;
22614;SDS011;11474;50.790;0.298;2022-08-19T05:33:11;29.38;;;7.30;;
22614;SDS011;11474;50.790;0.298;2022-08-19T05:35:37;30.35;;;7.28;;
22614;SDS011;11474;50.790;0.298;2022-08-19T05:38:07;26.33;;;6.50;;
22614;SDS011;11474;50.790;0.298;2022-08-19T05:40:34;31.73;;;6.50;;
22614;SDS011;11474;50.790;0.298;2022-08-19T05:43:02;30.48;;;7.10;;
22614;SDS011;11474;50.790;0.298;2022-08-19T05:45:28;25.65;;;6.95;;
22614;SDS011;11474;50.790;0.298;2022-08-19T05:47:54;28.33;;;6.50;;
22614;SDS011;11474;50.790;0.298;2022-08-19T05:50:20;22.98;;;6.05;;
22614;SDS011;11474;50.790;0.298;2022-08-19T05:52:47;24.90;;;6.07;;
22614;SDS011;11474;50.790;0.298;2022-08-19T05:55:13;26.27;;;5.90;;
22614;SDS011;11474;50.790;0.298;2022-08-19T05:57:39;27.02;;;5.22;;
22614;SDS011;11474;50.790;0.298;2022-08-19T06:00:06;24.60;;;5.85;;
22614;SDS011;11474;50.790;0.298;2022-08-19T06:02:36;28.25;;;5.97;;
22614;SDS011;11474;50.790;0.298;2022-08-19T06:05:03;24.57;;;5.60;;
22614;SDS011;11474;50.790;0.298;2022-08-19T06:07:34;25.05;;;5.35;;
22614;SDS011;11474;50.790;0.298;2022-08-19T06:10:00;23.08;;;6.32;;
22614;SDS011;11474;50.790;0.298;2022-08-19T06:12:27;25.35;;;5.78;;
22614;SDS011;11474;50.790;0.298;2022-08-19T06:14:56;27.77;;;5.90;;
22614;SDS011;11474;50.790;0.298;2022-08-19T06:17:22;26.40;;;5.10;;
22614;SDS011;11474;50.790;0.298;2022-08-19T06:19:50;25.23;;;5.20;;
22614;SDS011;11474;50.790;0.298;2022-08-19T06:22:16;26.35;;;5.50;;
22614;SDS011;11474;50.790;0.298;2022-08-19T06:24:43;19.42;;;4.93;;
22614;SDS011;11474;50.790;0.298;2022-08-19T06:27:09;27.20;;;5.03;;
22614;SDS011;11474;50.790;0.298;2022-08-19T06:29:35;23.60;;;5.35;;
22614;SDS011;11474;50.790;0.298;2022-08-19T06:32:02;22.95;;;5.40;;
22614;SDS011;11474;50.790;0.298;2022-08-19T06:34:30;21.55;;;4.93;;
22614;SDS011;11474;50.790;0.298;2022-08-19T06:36:57;30.40;;;5.80;;
22614;SDS011;11474;50.790;0.298;2022-08-19T06:39:27;27.23;;;5.07;;
22614;SDS011;11474;50.790;0.298;2022-08-19T06:41:54;24.10;;;4.90;;
22614;SDS011;11474;50.790;0.298;2022-08-19T06:44:21;21.63;;;5.10;;
22614;SDS011;11474;50.790;0.298;2022-08-19T06:46:48;19.05;;;4.60;;
22614;SDS011;11474;50.790;0.298;2022-08-19T06:49:14;20.73;;;4.72;;
22614;SDS011;11474;50.790;0.298;2022-08-19T06:51:41;22.10;;;4.72;;
22614;SDS011;11474;50.790;0.298;2022-08-19T06:54:08;19.38;;;4.38;;
22614;SDS011;11474;50.790;0.298;2022-08-19T06:56:34;19.65;;;4.03;;
22614;SDS011;11474;50.790;0.298;2022-08-19T06:59:02;20.93;;;4.50;;
22614;SDS011;11474;50.790;0.298;2022-08-19T07:01:28;22.08;;;4.50;;
22614;SDS011;11474;50.790;0.298;2022-08-19T07:03:54;23.60;;;4.65;;
22614;SDS011;11474;50.790;0.298;2022-08-19T07:06:22;22.30;;;4.93;;
22614;SDS011;11474;50.790;0.298;2022-08-19T07:08:48;23.92;;;4.78;;
22614;SDS011;11474;50.790;0.298;2022-08-19T07:11:15;20.95;;;4.75;;
22614;SDS011;11474;50.790;0.298;2022-08-19T07:13:43;21.90;;;4.72;;
22614;SDS011;11474;50.790;0.298;2022-08-19T07:16:11;27.75;;;5.00;;
22614;SDS011;11474;50.790;0.298;2022-08-19T07:18:38;22.08;;;4.85;;
22614;SDS011;11474;50.790;0.298;2022-08-19T07:21:06;19.25;;;4.43;;
22614;SDS011;11474;50.790;0.298;2022-08-19T07:23:32;25.35;;;5.80;;
22614;SDS011;11474;50.790;0.298;2022-08-19T07:26:04;21.98;;;5.20;;
22614;SDS011;11474;50.790;0.298;2022-08-19T07:28:30;24.20;;;4.43;;
22614;SDS011;11474;50.790;0.298;2022-08-19T07:30:56;22.38;;;4.60;;
22614;SDS011;11474;50.790;0.298;2022-08-19T07:33:22;22.85;;;4.90;;
22614;SDS011;11474;50.790;0.298;2022-08-19T07:35:49;22.25;;;4.95;;
22614;SDS011;11474;50.790;0.298;2022-08-19T07:38:15;20.90;;;4.53;;
22614;SDS011;11474;50.790;0.298;2022-08-19T07:40:42;21.65;;;5.10;;
22614;SDS011;11474;50.790;0.298;2022-08-19T07:43:08;20.63;;;4.50;;
22614;SDS011;11474;50.790;0.298;2022-08-19T07:45:34;17.90;;;4.63;;
22614;SDS011;11474;50.790;0.298;2022-08-19T07:48:00;19.60;;;4.50;;
22614;SDS011;11474;50.790;0.298;2022-08-19T07:50:27;22.02;;;4.22;;
22614;SDS011;11474;50.790;0.298;2022-08-19T07:52:53;24.37;;;4.70;;
22614;SDS011;11474;50.790;0.298;2022-08-19T07:55:21;23.80;;;4.28;;
22614;SDS011;11474;50.790;0.298;2022-08-19T07:57:47;30.27;;;5.53;;
22614;SDS011;11474;50.790;0.298;2022-08-19T08:00:14;23.48;;;5.28;;
22614;SDS011;11474;50.790;0.298;2022-08-19T08:02:40;23.80;;;4.78;;
22614;SDS011;11474;50.790;0.298;2022-08-19T08:05:08;25.88;;;5.00;;
22614;SDS011;11474;50.790;0.298;2022-08-19T08:07:53;22.97;;;5.50;;
22614;SDS011;11474;50.790;0.298;2022-08-19T08:10:38;22.27;;;4.72;;
22614;SDS011;11474;50.790;0.298;2022-08-19T08:13:04;23.80;;;5.15;;
22614;SDS011;11474;50.790;0.298;2022-08-19T08:15:31;19.33;;;4.38;;
22614;SDS011;11474;50.790;0.298;2022-08-19T08:17:57;18.13;;;3.78;;
22614;SDS011;11474;50.790;0.298;2022-08-19T08:20:23;21.33;;;4.78;;
22614;SDS011;11474;50.790;0.298;2022-08-19T08:22:50;25.85;;;5.28;;
22614;SDS011;11474;50.790;0.298;2022-08-19T08:25:35;17.07;;;3.90;;
22614;SDS011;11474;50.790;0.298;2022-08-19T08:28:02;18.00;;;3.85;;
22614;SDS011;11474;50.790;0.298;2022-08-19T08:30:29;20.60;;;4.22;;
22614;SDS011;11474;50.790;0.298;2022-08-19T08:32:57;16.50;;;3.70;;
22614;SDS011;11474;50.790;0.298;2022-08-19T08:35:24;17.63;;;3.90;;
22614;SDS011;11474;50.790;0.298;2022-08-19T08:37:51;18.13;;;3.85;;
22614;SDS011;11474;50.790;0.298;2022-08-19T08:40:20;17.52;;;3.88;;
22614;SDS011;11474;50.790;0.298;2022-08-19T08:43:10;16.95;;;3.63;;
22614;SDS011;11474;50.790;0.298;2022-08-19T08:45:38;20.02;;;3.95;;
22614;SDS011;11474;50.790;0.298;2022-08-19T08:48:13;16.77;;;3.78;;
22614;SDS011;11474;50.790;0.298;2022-08-19T08:50:42;17.23;;;3.75;;
22614;SDS011;11474;50.790;0.298;2022-08-19T08:53:09;20.38;;;4.00;;
22614;SDS011;11474;50.790;0.298;2022-08-19T08:55:36;15.70;;;3.65;;
22614;SDS011;11474;50.790;0.298;2022-08-19T08:58:03;14.73;;;3.33;;
22614;SDS011;11474;50.790;0.298;2022-08-19T09:00:36;18.48;;;3.40;;
22614;SDS011;11474;50.790;0.298;2022-08-19T09:03:03;14.17;;;3.40;;
22614;SDS011;11474;50.790;0.298;2022-08-19T09:05:44;15.83;;;3.40;;
22614;SDS011;11474;50.790;0.298;2022-08-19T09:08:18;13.57;;;3.37;;
22614;SDS011;11474;50.790;0.298;2022-08-19T09:10:49;15.73;;;3.88;;
22614;SDS011;11474;50.790;0.298;2022-08-19T09:15:56;10.75;;;2.83;;
22614;SDS011;11474;50.790;0.298;2022-08-19T09:18:24;17.63;;;3.58;;
22614;SDS011;11474;50.790;0.298;2022-08-19T09:20:50;14.95;;;3.40;;
22614;SDS011;11474;50.790;0.298;2022-08-19T09:23:17;15.90;;;3.40;;
22614;SDS011;11474;50.790;0.298;2022-08-19T09:25:44;19.20;;;3.78;;
22614;SDS011;11474;50.790;0.298;2022-08-19T09:28:11;16.80;;;3.58;;
22614;SDS011;11474;50.790;0.298;2022-08-19T09:30:40;13.10;;;3.17;;
22614;SDS011;11474;50.790;0.298;2022-08-19T09:33:07;12.57;;;2.70;;
22614;SDS011;11474;50.790;0.298;2022-08-19T09:35:33;12.60;;;3.08;;
22614;SDS011;11474;50.790;0.298;2022-08-19T09:38:00;16.00;;;3.35;;
22614;SDS011;11474;50.790;0.298;2022-08-19T09:40:27;13.55;;;3.03;;
22614;SDS011;11474;50.790;0.298;2022-08-19T09:42:53;14.52;;;3.42;;
22614;SDS011;11474;50.790;0.298;2022-08-19T09:45:20;13.05;;;3.00;;
22614;SDS011;11474;50.790;0.298;2022-08-19T09:47:47;12.38;;;3.38;;
22614;SDS011;11474;50.790;0.298;2022-08-19T09:50:14;16.40;;;3.60;;
22614;SDS011;11474;50.790;0.298;2022-08-19T09:52:40;17.35;;;4.10;;
22614;SDS011;11474;50.790;0.298;2022-08-19T09:55:08;16.30;;;3.70;;
22614;SDS011;11474;50.790;0.298;2022-08-19T09:57:34;14.03;;;3.70;;
22614;SDS011;11474;50.790;0.298;2022-08-19T10:00:01;17.52;;;3.97;;
22614;SDS011;11474;50.790;0.298;2022-08-19T10:02:27;16.50;;;3.40;;
22614;SDS011;11474;50.790;0.298;2022-08-19T10:04:53;13.15;;;2.50;;
22614;SDS011;11474;50.790;0.298;2022-08-19T10:07:38;12.48;;;3.05;;
22614;SDS011;11474;50.790;0.298;2022-08-19T10:10:04;16.05;;;3.60;;
22614;SDS011;11474;50.790;0.298;2022-08-19T10:12:32;14.13;;;2.75;;
22614;SDS011;11474;50.790;0.298;2022-08-19T10:14:58;12.00;;;2.70;;
22614;SDS011;11474;50.790;0.298;2022-08-19T10:17:25;19.33;;;3.80;;
22614;SDS011;11474;50.790;0.298;2022-08-19T10:19:51;14.43;;;3.03;;
22614;SDS011;11474;50.790;0.298;2022-08-19T10:22:18;11.38;;;2.60;;
22614;SDS011;11474;50.790;0.298;2022-08-19T10:24:47;16.00;;;2.88;;
22614;SDS011;11474;50.790;0.298;2022-08-19T10:27:14;11.57;;;2.63;;
22614;SDS011;11474;50.790;0.298;2022-08-19T10:29:40;16.90;;;2.97;;
22614;SDS011;11474;50.790;0.298;2022-08-19T10:32:07;13.18;;;2.88;;
22614;SDS011;11474;50.790;0.298;2022-08-19T10:34:38;14.82;;;3.75;;
22614;SDS011;11474;50.790;0.298;2022-08-19T10:37:04;10.68;;;2.50;;
22614;SDS011;11474;50.790;0.298;2022-08-19T10:39:31;7.60;;;2.20;;
22614;SDS011;11474;50.790;0.298;2022-08-19T10:41:58;9.48;;;2.55;;
22614;SDS011;11474;50.790;0.298;2022-08-19T10:44:25;10.05;;;2.58;;
22614;SDS011;11474;50.790;0.298;2022-08-19T10:46:55;10.35;;;2.47;;
22614;SDS011;11474;50.790;0.298;2022-08-19T10:49:21;10.68;;;2.53;;
22614;SDS011;11474;50.790;0.298;2022-08-19T10:51:49;7.90;;;2.28;;
22614;SDS011;11474;50.790;0.298;2022-08-19T10:54:34;9.83;;;2.70;;
22614;SDS011;11474;50.790;0.298;2022-08-19T10:57:32;9.70;;;2.30;;
22614;SDS011;11474;50.790;0.298;2022-08-19T10:59:58;6.80;;;1.80;;
22614;SDS011;11474;50.790;0.298;2022-08-19T11:02:24;7.38;;;1.88;;
22614;SDS011;11474;50.790;0.298;2022-08-19T11:04:51;6.82;;;1.80;;
22614;SDS011;11474;50.790;0.298;2022-08-19T11:07:17;7.93;;;2.30;;
22614;SDS011;11474;50.790;0.298;2022-08-19T11:09:43;6.55;;;2.15;;
22614;SDS011;11474;50.790;0.298;2022-08-19T11:12:11;10.43;;;2.67;;
22614;SDS011;11474;50.790;0.298;2022-08-19T11:14:37;7.55;;;2.00;;
22614;SDS011;11474;50.790;0.298;2022-08-19T11:17:04;6.90;;;2.10;;
22614;SDS011;11474;50.790;0.298;2022-08-19T11:19:31;10.95;;;2.22;;
22614;SDS011;11474;50.790;0.298;2022-08-19T11:21:58;7.70;;;1.83;;
22614;SDS011;11474;50.790;0.298;2022-08-19T11:24:26;6.57;;;2.00;;
22614;SDS011;11474;50.790;0.298;2022-08-19T11:26:53;6.77;;;1.93;;
22614;SDS011;11474;50.790;0.298;2022-08-19T11:29:24;7.38;;;2.25;;
22614;SDS011;11474;50.790;0.298;2022-08-19T11:31:52;8.32;;;2.20;;
22614;SDS011;11474;50.790;0.298;2022-08-19T11:34:24;7.72;;;2.40;;
22614;SDS011;11474;50.790;0.298;2022-08-19T11:36:52;8.07;;;2.00;;
22614;SDS011;11474;50.790;0.298;2022-08-19T11:39:22;5.97;;;2.25;;
22614;SDS011;11474;50.790;0.298;2022-08-19T11:41:48;6.75;;;2.42;;
22614;SDS011;11474;50.790;0.298;2022-08-19T11:44:14;8.07;;;2.05;;
22614;SDS011;11474;50.790;0.298;2022-08-19T11:46:41;8.93;;;2.07;;
22614;SDS011;11474;50.790;0.298;2022-08-19T11:49:12;5.30;;;1.53;;
22614;SDS011;11474;50.790;0.298;2022-08-19T11:51:38;3.53;;;1.35;;
22614;SDS011;11474;50.790;0.298;2022-08-19T11:54:05;3.65;;;1.35;;
22614;SDS011;11474;50.790;0.298;2022-08-19T11:56:31;3.47;;;1.30;;
22614;SDS011;11474;50.790;0.298;2022-08-19T11:58:58;5.50;;;1.50;;
22614;SDS011;11474;50.790;0.298;2022-08-19T12:01:24;3.38;;;1.30;;
22614;SDS011;11474;50.790;0.298;2022-08-19T12:03:51;3.38;;;1.15;;
22614;SDS011;11474;50.790;0.298;2022-08-19T12:06:20;5.57;;;1.40;;
22614;SDS011;11474;50.790;0.298;2022-08-19T12:08:51;4.47;;;1.42;;
22614;SDS011;11474;50.790;0.298;2022-08-19T12:11:17;3.08;;;0.98;;
22614;SDS011;11474;50.790;0.298;2022-08-19T12:13:43;3.00;;;1.13;;
22614;SDS011;11474;50.790;0.298;2022-08-19T12:16:13;4.05;;;1.40;;
22614;SDS011;11474;50.790;0.298;2022-08-19T12:18:40;2.63;;;0.90;;
22614;SDS011;11474;50.790;0.298;2022-08-19T12:21:09;3.83;;;1.00;;
22614;SDS011;11474;50.790;0.298;2022-08-19T12:23:36;1.50;;;0.73;;
22614;SDS011;11474;50.790;0.298;2022-08-19T12:26:02;3.30;;;1.00;;
22614;SDS011;11474;50.790;0.298;2022-08-19T12:28:29;3.00;;;1.00;;
22614;SDS011;11474;50.790;0.298;2022-08-19T12:30:56;2.53;;;0.98;;
22614;SDS011;11474;50.790;0.298;2022-08-19T12:33:23;2.65;;;1.05;;
22614;SDS011;11474;50.790;0.298;2022-08-19T12:35:52;1.92;;;0.80;;
22614;SDS011;11474;50.790;0.298;2022-08-19T12:38:18;3.83;;;0.90;;
22614;SDS011;11474;50.790;0.298;2022-08-19T12:40:46;2.78;;;1.00;;
22614;SDS011;11474;50.790;0.298;2022-08-19T12:43:13;5.18;;;1.70;;
22614;SDS011;11474;50.790;0.298;2022-08-19T12:45:41;4.85;;;1.23;;
22614;SDS011;11474;50.790;0.298;2022-08-19T12:48:08;2.90;;;1.20;;
22614;SDS011;11474;50.790;0.298;2022-08-19T12:50:34;4.07;;;1.10;;
22614;SDS011;11474;50.790;0.298;2022-08-19T12:53:00;3.50;;;1.20;;
22614;SDS011;11474;50.790;0.298;2022-08-19T12:55:26;3.53;;;1.17;;
22614;SDS011;11474;50.790;0.298;2022-08-19T12:57:54;3.15;;;1.33;;
22614;SDS011;11474;50.790;0.298;2022-08-19T13:00:21;6.15;;;1.60;;
22614;SDS011;11474;50.790;0.298;2022-08-19T13:02:49;4.00;;;1.55;;
22614;SDS011;11474;50.790;0.298;2022-08-19T13:05:16;4.55;;;1.58;;
22614;SDS011;11474;50.790;0.298;2022-08-19T13:07:45;4.00;;;1.50;;
22614;SDS011;11474;50.790;0.298;2022-08-19T13:10:11;4.88;;;1.80;;
22614;SDS011;11474;50.790;0.298;2022-08-19T13:12:38;1.52;;;0.80;;
22614;SDS011;11474;50.790;0.298;2022-08-19T13:15:06;3.50;;;1.20;;
22614;SDS011;11474;50.790;0.298;2022-08-19T13:17:34;2.88;;;1.20;;
22614;SDS011;11474;50.790;0.298;2022-08-19T13:20:00;4.25;;;1.70;;
22614;SDS011;11474;50.790;0.298;2022-08-19T13:22:26;5.00;;;1.80;;
22614;SDS011;11474;50.790;0.298;2022-08-19T13:24:52;3.22;;;1.60;;
22614;SDS011;11474;50.790;0.298;2022-08-19T13:27:18;4.90;;;1.90;;
22614;SDS011;11474;50.790;0.298;2022-08-19T13:29:44;4.65;;;1.75;;
22614;SDS011;11474;50.790;0.298;2022-08-19T13:32:30;5.70;;;2.13;;
22614;SDS011;11474;50.790;0.298;2022-08-19T13:35:15;2.80;;;1.60;;
22614;SDS011;11474;50.790;0.298;2022-08-19T13:37:41;4.25;;;1.83;;
22614;SDS011;11474;50.790;0.298;2022-08-19T13:40:09;8.70;;;2.00;;
22614;SDS011;11474;50.790;0.298;2022-08-19T13:42:37;4.55;;;1.88;;
22614;SDS011;11474;50.790;0.298;2022-08-19T13:45:04;5.88;;;2.30;;
22614;SDS011;11474;50.790;0.298;2022-08-19T13:47:31;4.67;;;1.90;;
22614;SDS011;11474;50.790;0.298;2022-08-19T13:49:59;5.40;;;2.10;;
22614;SDS011;11474;50.790;0.298;2022-08-19T13:52:25;6.45;;;2.08;;
22614;SDS011;11474;50.790;0.298;2022-08-19T13:54:51;6.85;;;2.20;;
22614;SDS011;11474;50.790;0.298;2022-08-19T13:57:18;6.85;;;2.20;;
22614;SDS011;11474;50.790;0.298;2022-08-19T13:59:44;9.83;;;2.43;;
22614;SDS011;11474;50.790;0.298;2022-08-19T14:02:10;6.05;;;2.20;;
22614;SDS011;11474;50.790;0.298;2022-08-19T14:04:37;11.48;;;2.85;;
22614;SDS011;11474;50.790;0.298;2022-08-19T14:07:03;6.80;;;2.25;;
22614;SDS011;11474;50.790;0.298;2022-08-19T14:09:29;12.27;;;2.72;;
22614;SDS011;11474;50.790;0.298;2022-08-19T14:11:55;8.18;;;2.53;;
22614;SDS011;11474;50.790;0.298;2022-08-19T14:14:22;11.32;;;2.55;;
22614;SDS011;11474;50.790;0.298;2022-08-19T14:16:48;12.45;;;3.00;;
22614;SDS011;11474;50.790;0.298;2022-08-19T14:19:14;10.97;;;2.70;;
22614;SDS011;11474;50.790;0.298;2022-08-19T14:21:41;9.88;;;2.35;;
22614;SDS011;11474;50.790;0.298;2022-08-19T14:24:07;10.98;;;2.88;;
22614;SDS011;11474;50.790;0.298;2022-08-19T14:26:34;12.48;;;2.80;;
22614;SDS011;11474;50.790;0.298;2022-08-19T14:29:00;13.70;;;3.30;;
22614;SDS011;11474;50.790;0.298;2022-08-19T14:31:26;8.30;;;2.72;;
22614;SDS011;11474;50.790;0.298;2022-08-19T14:33:52;9.32;;;2.25;;
22614;SDS011;11474;50.790;0.298;2022-08-19T14:36:19;10.40;;;2.60;;
22614;SDS011;11474;50.790;0.298;2022-08-19T14:38:46;12.05;;;2.78;;
22614;SDS011;11474;50.790;0.298;2022-08-19T14:41:15;8.87;;;2.53;;
22614;SDS011;11474;50.790;0.298;2022-08-19T14:43:45;4.45;;;2.00;;
22614;SDS011;11474;50.790;0.298;2022-08-19T14:46:12;7.13;;;1.80;;